sensor_id;sensor_type;location;lat;lon;timestamp;P1;durP1;ratioP1;P2;durP2;ratioP2
23696;SDS011;48864;50.820;4.400;2022-09-09T00:00:44;4.97;;;1.90;;
23696;SDS011;48864;50.820;4.400;2022-09-09T00:03:17;4.55;;;2.00;;
23696;SDS011;48864;50.820;4.400;2022-09-09T00:08:21;3.85;;;1.80;;
23696;SDS011;48864;50.820;4.400;2022-09-09T00:10:58;6.47;;;1.95;;
23696;SDS011;48864;50.820;4.400;2022-09-09T00:16:17;2.85;;;1.60;;
23696;SDS011;48864;50.820;4.400;2022-09-09T00:21:24;4.53;;;1.83;;
23696;SDS011;48864;50.820;4.400;2022-09-09T00:23:58;3.78;;;1.80;;
23696;SDS011;48864;50.820;4.400;2022-09-09T00:26:45;4.13;;;1.83;;
23696;SDS011;48864;50.820;4.400;2022-09-09T00:31:59;5.15;;;1.77;;
23696;SDS011;48864;50.820;4.400;2022-09-09T00:34:36;3.40;;;1.98;;
23696;SDS011;48864;50.820;4.400;2022-09-09T00:37:08;3.58;;;1.75;;
23696;SDS011;48864;50.820;4.400;2022-09-09T00:39:34;4.45;;;1.73;;
23696;SDS011;48864;50.820;4.400;2022-09-09T00:42:09;4.47;;;1.83;;
23696;SDS011;48864;50.820;4.400;2022-09-09T00:44:37;6.47;;;1.75;;
23696;SDS011;48864;50.820;4.400;2022-09-09T00:47:20;5.50;;;1.90;;
23696;SDS011;48864;50.820;4.400;2022-09-09T00:50:25;5.15;;;1.90;;
23696;SDS011;48864;50.820;4.400;2022-09-09T00:53:05;2.20;;;1.52;;
23696;SDS011;48864;50.820;4.400;2022-09-09T00:58:22;5.50;;;1.70;;
23696;SDS011;48864;50.820;4.400;2022-09-09T01:00:58;5.43;;;1.58;;
23696;SDS011;48864;50.820;4.400;2022-09-09T01:11:22;2.22;;;1.33;;
23696;SDS011;48864;50.820;4.400;2022-09-09T01:16:50;3.65;;;1.70;;
23696;SDS011;48864;50.820;4.400;2022-09-09T01:19:38;2.67;;;1.67;;
23696;SDS011;48864;50.820;4.400;2022-09-09T01:22:10;4.70;;;1.80;;
23696;SDS011;48864;50.820;4.400;2022-09-09T01:27:30;6.75;;;2.00;;
23696;SDS011;48864;50.820;4.400;2022-09-09T01:29:57;5.30;;;1.95;;
23696;SDS011;48864;50.820;4.400;2022-09-09T01:35:11;9.93;;;2.25;;
23696;SDS011;48864;50.820;4.400;2022-09-09T01:38:04;5.65;;;2.10;;
23696;SDS011;48864;50.820;4.400;2022-09-09T01:40:30;5.65;;;2.08;;
23696;SDS011;48864;50.820;4.400;2022-09-09T01:42:57;8.25;;;1.98;;
23696;SDS011;48864;50.820;4.400;2022-09-09T01:45:22;5.82;;;2.00;;
23696;SDS011;48864;50.820;4.400;2022-09-09T01:47:49;5.55;;;1.90;;
23696;SDS011;48864;50.820;4.400;2022-09-09T01:50:17;9.18;;;2.30;;
23696;SDS011;48864;50.820;4.400;2022-09-09T01:52:44;6.13;;;2.13;;
23696;SDS011;48864;50.820;4.400;2022-09-09T01:55:14;7.82;;;2.25;;
23696;SDS011;48864;50.820;4.400;2022-09-09T01:57:50;7.85;;;2.17;;
23696;SDS011;48864;50.820;4.400;2022-09-09T02:00:37;4.53;;;1.90;;
23696;SDS011;48864;50.820;4.400;2022-09-09T02:05:45;3.55;;;1.80;;
23696;SDS011;48864;50.820;4.400;2022-09-09T02:08:20;11.55;;;2.55;;
23696;SDS011;48864;50.820;4.400;2022-09-09T02:13:36;7.65;;;2.30;;
23696;SDS011;48864;50.820;4.400;2022-09-09T02:16:14;8.68;;;2.25;;
23696;SDS011;48864;50.820;4.400;2022-09-09T02:19:11;7.97;;;2.10;;
23696;SDS011;48864;50.820;4.400;2022-09-09T02:21:49;9.75;;;2.15;;
23696;SDS011;48864;50.820;4.400;2022-09-09T02:24:15;8.35;;;2.38;;
23696;SDS011;48864;50.820;4.400;2022-09-09T02:26:41;7.45;;;2.03;;
23696;SDS011;48864;50.820;4.400;2022-09-09T02:29:11;5.55;;;1.92;;
23696;SDS011;48864;50.820;4.400;2022-09-09T02:31:39;8.98;;;1.85;;
23696;SDS011;48864;50.820;4.400;2022-09-09T02:34:08;7.25;;;2.20;;
23696;SDS011;48864;50.820;4.400;2022-09-09T02:36:36;8.07;;;2.17;;
23696;SDS011;48864;50.820;4.400;2022-09-09T02:39:05;10.70;;;2.22;;
23696;SDS011;48864;50.820;4.400;2022-09-09T02:41:34;11.82;;;2.50;;
23696;SDS011;48864;50.820;4.400;2022-09-09T02:44:02;7.38;;;2.03;;
23696;SDS011;48864;50.820;4.400;2022-09-09T02:49:15;7.00;;;2.00;;
23696;SDS011;48864;50.820;4.400;2022-09-09T02:52:06;11.93;;;2.15;;
23696;SDS011;48864;50.820;4.400;2022-09-09T02:54:37;6.60;;;2.15;;
23696;SDS011;48864;50.820;4.400;2022-09-09T02:57:17;6.68;;;2.15;;
23696;SDS011;48864;50.820;4.400;2022-09-09T02:59:50;6.82;;;2.35;;
23696;SDS011;48864;50.820;4.400;2022-09-09T03:02:17;6.03;;;2.05;;
23696;SDS011;48864;50.820;4.400;2022-09-09T03:04:43;6.93;;;2.25;;
23696;SDS011;48864;50.820;4.400;2022-09-09T03:07:09;6.00;;;2.00;;
23696;SDS011;48864;50.820;4.400;2022-09-09T03:09:36;4.65;;;2.20;;
23696;SDS011;48864;50.820;4.400;2022-09-09T03:12:02;5.80;;;2.10;;
23696;SDS011;48864;50.820;4.400;2022-09-09T03:14:29;12.02;;;2.40;;
23696;SDS011;48864;50.820;4.400;2022-09-09T03:16:55;6.25;;;2.20;;
23696;SDS011;48864;50.820;4.400;2022-09-09T03:19:22;8.98;;;2.35;;
23696;SDS011;48864;50.820;4.400;2022-09-09T03:21:48;9.38;;;2.20;;
23696;SDS011;48864;50.820;4.400;2022-09-09T03:24:14;13.25;;;2.78;;
23696;SDS011;48864;50.820;4.400;2022-09-09T03:26:40;12.50;;;2.15;;
23696;SDS011;48864;50.820;4.400;2022-09-09T03:29:09;13.05;;;2.63;;
23696;SDS011;48864;50.820;4.400;2022-09-09T03:31:37;10.02;;;2.28;;
23696;SDS011;48864;50.820;4.400;2022-09-09T03:36:35;8.15;;;2.40;;
23696;SDS011;48864;50.820;4.400;2022-09-09T03:39:01;7.25;;;2.40;;
23696;SDS011;48864;50.820;4.400;2022-09-09T03:41:28;10.75;;;2.50;;
23696;SDS011;48864;50.820;4.400;2022-09-09T03:43:54;5.93;;;2.38;;
23696;SDS011;48864;50.820;4.400;2022-09-09T03:46:21;11.25;;;2.58;;
23696;SDS011;48864;50.820;4.400;2022-09-09T03:48:48;12.80;;;2.60;;
23696;SDS011;48864;50.820;4.400;2022-09-09T03:51:13;9.43;;;2.33;;
23696;SDS011;48864;50.820;4.400;2022-09-09T03:53:40;12.48;;;2.65;;
23696;SDS011;48864;50.820;4.400;2022-09-09T03:56:06;5.40;;;2.35;;
23696;SDS011;48864;50.820;4.400;2022-09-09T03:58:35;13.20;;;2.72;;
23696;SDS011;48864;50.820;4.400;2022-09-09T04:01:03;8.98;;;2.90;;
23696;SDS011;48864;50.820;4.400;2022-09-09T04:03:39;8.57;;;2.60;;
23696;SDS011;48864;50.820;4.400;2022-09-09T04:06:06;12.18;;;3.13;;
23696;SDS011;48864;50.820;4.400;2022-09-09T04:08:34;11.73;;;2.42;;
23696;SDS011;48864;50.820;4.400;2022-09-09T04:11:01;8.15;;;2.35;;
23696;SDS011;48864;50.820;4.400;2022-09-09T04:13:31;7.50;;;2.70;;
23696;SDS011;48864;50.820;4.400;2022-09-09T04:16:02;11.57;;;2.60;;
23696;SDS011;48864;50.820;4.400;2022-09-09T04:18:28;10.07;;;2.40;;
23696;SDS011;48864;50.820;4.400;2022-09-09T04:20:54;8.10;;;2.80;;
23696;SDS011;48864;50.820;4.400;2022-09-09T04:23:23;9.70;;;2.38;;
23696;SDS011;48864;50.820;4.400;2022-09-09T04:25:51;10.82;;;2.47;;
23696;SDS011;48864;50.820;4.400;2022-09-09T04:28:18;9.85;;;2.55;;
23696;SDS011;48864;50.820;4.400;2022-09-09T04:30:45;13.15;;;2.55;;
23696;SDS011;48864;50.820;4.400;2022-09-09T04:33:12;13.30;;;6.95;;
23696;SDS011;48864;50.820;4.400;2022-09-09T04:35:38;12.10;;;6.20;;
23696;SDS011;48864;50.820;4.400;2022-09-09T04:38:08;12.05;;;6.60;;
23696;SDS011;48864;50.820;4.400;2022-09-09T04:40:34;11.82;;;6.68;;
23696;SDS011;48864;50.820;4.400;2022-09-09T04:43:00;11.43;;;5.88;;
23696;SDS011;48864;50.820;4.400;2022-09-09T04:45:29;15.00;;;6.05;;
23696;SDS011;48864;50.820;4.400;2022-09-09T04:47:55;10.98;;;5.88;;
23696;SDS011;48864;50.820;4.400;2022-09-09T04:50:30;11.45;;;6.05;;
23696;SDS011;48864;50.820;4.400;2022-09-09T04:52:59;11.88;;;5.88;;
23696;SDS011;48864;50.820;4.400;2022-09-09T04:55:26;11.80;;;6.38;;
23696;SDS011;48864;50.820;4.400;2022-09-09T04:57:52;12.35;;;6.22;;
23696;SDS011;48864;50.820;4.400;2022-09-09T05:00:17;11.70;;;5.60;;
23696;SDS011;48864;50.820;4.400;2022-09-09T05:02:43;11.45;;;6.10;;
23696;SDS011;48864;50.820;4.400;2022-09-09T05:05:09;9.52;;;5.85;;
23696;SDS011;48864;50.820;4.400;2022-09-09T05:07:36;10.85;;;5.70;;
23696;SDS011;48864;50.820;4.400;2022-09-09T05:10:02;9.85;;;5.80;;
23696;SDS011;48864;50.820;4.400;2022-09-09T05:12:30;12.48;;;6.13;;
23696;SDS011;48864;50.820;4.400;2022-09-09T05:14:56;17.58;;;6.85;;
23696;SDS011;48864;50.820;4.400;2022-09-09T05:17:23;14.98;;;6.55;;
23696;SDS011;48864;50.820;4.400;2022-09-09T05:19:49;11.35;;;6.35;;
23696;SDS011;48864;50.820;4.400;2022-09-09T05:22:20;12.77;;;6.10;;
23696;SDS011;48864;50.820;4.400;2022-09-09T05:24:48;9.40;;;6.13;;
23696;SDS011;48864;50.820;4.400;2022-09-09T05:27:15;7.38;;;5.57;;
23696;SDS011;48864;50.820;4.400;2022-09-09T05:29:47;15.05;;;6.18;;
23696;SDS011;48864;50.820;4.400;2022-09-09T05:32:13;15.18;;;5.90;;
23696;SDS011;48864;50.820;4.400;2022-09-09T05:34:42;8.27;;;5.70;;
23696;SDS011;48864;50.820;4.400;2022-09-09T05:37:07;13.25;;;6.03;;
23696;SDS011;48864;50.820;4.400;2022-09-09T05:39:33;11.10;;;6.20;;
23696;SDS011;48864;50.820;4.400;2022-09-09T05:42:01;9.13;;;6.35;;
23696;SDS011;48864;50.820;4.400;2022-09-09T05:44:27;13.95;;;5.90;;
23696;SDS011;48864;50.820;4.400;2022-09-09T05:46:54;10.10;;;5.50;;
23696;SDS011;48864;50.820;4.400;2022-09-09T05:52:02;12.93;;;6.22;;
23696;SDS011;48864;50.820;4.400;2022-09-09T05:54:28;10.77;;;5.28;;
23696;SDS011;48864;50.820;4.400;2022-09-09T05:56:54;13.95;;;5.80;;
23696;SDS011;48864;50.820;4.400;2022-09-09T05:59:20;13.25;;;6.10;;
23696;SDS011;48864;50.820;4.400;2022-09-09T06:02:05;12.95;;;6.13;;
23696;SDS011;48864;50.820;4.400;2022-09-09T06:04:30;11.68;;;6.18;;
23696;SDS011;48864;50.820;4.400;2022-09-09T06:06:57;12.23;;;5.95;;
23696;SDS011;48864;50.820;4.400;2022-09-09T06:11:52;11.55;;;5.93;;
23696;SDS011;48864;50.820;4.400;2022-09-09T06:14:19;11.75;;;5.97;;
23696;SDS011;48864;50.820;4.400;2022-09-09T06:16:45;9.13;;;5.78;;
23696;SDS011;48864;50.820;4.400;2022-09-09T06:19:11;10.75;;;5.80;;
23696;SDS011;48864;50.820;4.400;2022-09-09T06:24:38;9.63;;;5.88;;
23696;SDS011;48864;50.820;4.400;2022-09-09T06:27:03;8.38;;;5.72;;
23696;SDS011;48864;50.820;4.400;2022-09-09T06:29:30;13.05;;;5.97;;
23696;SDS011;48864;50.820;4.400;2022-09-09T06:31:55;9.20;;;5.80;;
23696;SDS011;48864;50.820;4.400;2022-09-09T06:36:51;10.73;;;6.05;;
23696;SDS011;48864;50.820;4.400;2022-09-09T06:39:16;11.30;;;6.45;;
23696;SDS011;48864;50.820;4.400;2022-09-09T06:41:43;9.57;;;5.72;;
23696;SDS011;48864;50.820;4.400;2022-09-09T06:44:09;12.73;;;5.82;;
23696;SDS011;48864;50.820;4.400;2022-09-09T06:46:51;13.60;;;6.13;;
23696;SDS011;48864;50.820;4.400;2022-09-09T06:49:17;11.40;;;6.28;;
23696;SDS011;48864;50.820;4.400;2022-09-09T06:51:42;11.85;;;5.60;;
23696;SDS011;48864;50.820;4.400;2022-09-09T06:54:09;11.45;;;6.00;;
23696;SDS011;48864;50.820;4.400;2022-09-09T06:56:37;14.15;;;6.22;;
23696;SDS011;48864;50.820;4.400;2022-09-09T06:59:06;11.48;;;5.95;;
23696;SDS011;48864;50.820;4.400;2022-09-09T07:01:41;7.40;;;2.22;;
23696;SDS011;48864;50.820;4.400;2022-09-09T07:04:11;8.77;;;2.58;;
23696;SDS011;48864;50.820;4.400;2022-09-09T07:06:41;9.18;;;2.40;;
23696;SDS011;48864;50.820;4.400;2022-09-09T07:09:09;11.82;;;2.80;;
23696;SDS011;48864;50.820;4.400;2022-09-09T07:11:40;6.93;;;2.20;;
23696;SDS011;48864;50.820;4.400;2022-09-09T07:16:40;12.55;;;2.88;;
23696;SDS011;48864;50.820;4.400;2022-09-09T07:19:07;12.63;;;2.33;;
23696;SDS011;48864;50.820;4.400;2022-09-09T07:21:36;10.25;;;2.55;;
23696;SDS011;48864;50.820;4.400;2022-09-09T07:24:08;8.70;;;2.22;;
23696;SDS011;48864;50.820;4.400;2022-09-09T07:26:38;7.40;;;2.30;;
23696;SDS011;48864;50.820;4.400;2022-09-09T07:29:05;7.75;;;2.25;;
23696;SDS011;48864;50.820;4.400;2022-09-09T07:31:32;7.05;;;2.20;;
23696;SDS011;48864;50.820;4.400;2022-09-09T07:33:59;7.88;;;2.42;;
23696;SDS011;48864;50.820;4.400;2022-09-09T07:36:31;7.20;;;2.30;;
23696;SDS011;48864;50.820;4.400;2022-09-09T07:38:59;6.18;;;2.17;;
23696;SDS011;48864;50.820;4.400;2022-09-09T07:41:38;4.53;;;2.05;;
23696;SDS011;48864;50.820;4.400;2022-09-09T07:44:09;7.85;;;2.70;;
23696;SDS011;48864;50.820;4.400;2022-09-09T07:49:13;6.93;;;2.50;;
23696;SDS011;48864;50.820;4.400;2022-09-09T07:51:41;6.75;;;2.28;;
23696;SDS011;48864;50.820;4.400;2022-09-09T07:54:09;12.93;;;4.25;;
23696;SDS011;48864;50.820;4.400;2022-09-09T07:56:37;10.77;;;2.92;;
23696;SDS011;48864;50.820;4.400;2022-09-09T07:59:04;11.32;;;2.45;;
23696;SDS011;48864;50.820;4.400;2022-09-09T08:01:39;7.50;;;2.60;;
23696;SDS011;48864;50.820;4.400;2022-09-09T08:04:11;11.43;;;3.00;;
23696;SDS011;48864;50.820;4.400;2022-09-09T08:06:42;10.13;;;2.25;;
23696;SDS011;48864;50.820;4.400;2022-09-09T08:09:21;8.82;;;2.60;;
23696;SDS011;48864;50.820;4.400;2022-09-09T08:11:50;10.30;;;2.67;;
23696;SDS011;48864;50.820;4.400;2022-09-09T08:14:16;6.50;;;2.55;;
23696;SDS011;48864;50.820;4.400;2022-09-09T08:16:43;11.35;;;3.47;;
23696;SDS011;48864;50.820;4.400;2022-09-09T08:19:11;6.13;;;2.60;;
23696;SDS011;48864;50.820;4.400;2022-09-09T08:21:38;13.48;;;2.83;;
23696;SDS011;48864;50.820;4.400;2022-09-09T08:24:06;9.00;;;2.35;;
23696;SDS011;48864;50.820;4.400;2022-09-09T08:26:38;8.75;;;2.90;;
23696;SDS011;48864;50.820;4.400;2022-09-09T08:29:12;9.05;;;2.70;;
23696;SDS011;48864;50.820;4.400;2022-09-09T08:31:43;14.25;;;2.83;;
23696;SDS011;48864;50.820;4.400;2022-09-09T08:36:53;9.95;;;2.47;;
23696;SDS011;48864;50.820;4.400;2022-09-09T08:39:20;7.38;;;2.72;;
23696;SDS011;48864;50.820;4.400;2022-09-09T09:12:23;8.15;;;2.72;;
23696;SDS011;48864;50.820;4.400;2022-09-09T09:14:51;7.57;;;2.72;;
23696;SDS011;48864;50.820;4.400;2022-09-09T09:20:02;9.25;;;2.70;;
23696;SDS011;48864;50.820;4.400;2022-09-09T09:22:40;9.13;;;2.55;;
23696;SDS011;48864;50.820;4.400;2022-09-09T09:25:17;11.07;;;2.55;;
23696;SDS011;48864;50.820;4.400;2022-09-09T09:30:36;10.45;;;2.72;;
23696;SDS011;48864;50.820;4.400;2022-09-09T09:35:51;10.52;;;2.50;;
23696;SDS011;48864;50.820;4.400;2022-09-09T09:38:22;8.27;;;2.63;;
23696;SDS011;48864;50.820;4.400;2022-09-09T09:43:36;12.25;;;3.10;;
23696;SDS011;48864;50.820;4.400;2022-09-09T09:46:05;7.05;;;2.85;;
23696;SDS011;48864;50.820;4.400;2022-09-09T09:48:44;7.38;;;2.70;;
23696;SDS011;48864;50.820;4.400;2022-09-09T09:51:12;7.57;;;2.45;;
23696;SDS011;48864;50.820;4.400;2022-09-09T09:53:42;8.30;;;2.67;;
23696;SDS011;48864;50.820;4.400;2022-09-09T09:56:09;10.85;;;3.45;;
23696;SDS011;48864;50.820;4.400;2022-09-09T10:01:22;8.70;;;2.60;;
23696;SDS011;48864;50.820;4.400;2022-09-09T10:04:01;12.02;;;3.03;;
23696;SDS011;48864;50.820;4.400;2022-09-09T10:06:41;8.98;;;2.88;;
23696;SDS011;48864;50.820;4.400;2022-09-09T10:19:52;6.88;;;3.00;;
23696;SDS011;48864;50.820;4.400;2022-09-09T10:22:47;8.10;;;3.05;;
23696;SDS011;48864;50.820;4.400;2022-09-09T10:25:22;10.55;;;3.15;;
23696;SDS011;48864;50.820;4.400;2022-09-09T10:36:39;12.88;;;3.40;;
23696;SDS011;48864;50.820;4.400;2022-09-09T10:47:14;9.27;;;2.78;;
23696;SDS011;48864;50.820;4.400;2022-09-09T10:55:28;8.13;;;3.08;;
23696;SDS011;48864;50.820;4.400;2022-09-09T10:58:04;8.00;;;2.75;;
23696;SDS011;48864;50.820;4.400;2022-09-09T11:00:40;8.70;;;2.50;;
23696;SDS011;48864;50.820;4.400;2022-09-09T11:06:00;7.10;;;2.60;;
23696;SDS011;48864;50.820;4.400;2022-09-09T11:08:31;9.50;;;2.60;;
23696;SDS011;48864;50.820;4.400;2022-09-09T11:11:09;6.07;;;2.30;;
23696;SDS011;48864;50.820;4.400;2022-09-09T11:13:44;6.30;;;2.30;;
23696;SDS011;48864;50.820;4.400;2022-09-09T11:16:22;5.22;;;2.20;;
23696;SDS011;48864;50.820;4.400;2022-09-09T11:19:12;6.35;;;2.35;;
23696;SDS011;48864;50.820;4.400;2022-09-09T11:21:47;5.03;;;2.00;;
23696;SDS011;48864;50.820;4.400;2022-09-09T11:26:49;8.35;;;2.50;;
23696;SDS011;48864;50.820;4.400;2022-09-09T11:37:51;7.28;;;2.50;;
23696;SDS011;48864;50.820;4.400;2022-09-09T11:40:23;5.50;;;2.60;;
23696;SDS011;48864;50.820;4.400;2022-09-09T11:43:00;5.95;;;2.28;;
23696;SDS011;48864;50.820;4.400;2022-09-09T11:45:33;11.90;;;2.47;;
23696;SDS011;48864;50.820;4.400;2022-09-09T11:50:35;7.82;;;2.10;;
23696;SDS011;48864;50.820;4.400;2022-09-09T11:55:48;5.05;;;1.73;;
23696;SDS011;48864;50.820;4.400;2022-09-09T11:58:28;3.92;;;2.10;;
23696;SDS011;48864;50.820;4.400;2022-09-09T12:01:00;10.43;;;2.38;;
23696;SDS011;48864;50.820;4.400;2022-09-09T12:03:45;5.88;;;2.03;;
23696;SDS011;48864;50.820;4.400;2022-09-09T12:06:41;6.15;;;2.08;;
23696;SDS011;48864;50.820;4.400;2022-09-09T12:09:36;5.90;;;1.88;;
23696;SDS011;48864;50.820;4.400;2022-09-09T12:12:35;5.60;;;1.95;;
23696;SDS011;48864;50.820;4.400;2022-09-09T12:17:46;5.25;;;1.85;;
23696;SDS011;48864;50.820;4.400;2022-09-09T12:20:16;5.63;;;2.53;;
23696;SDS011;48864;50.820;4.400;2022-09-09T12:22:47;3.97;;;2.08;;
23696;SDS011;48864;50.820;4.400;2022-09-09T12:31:44;5.93;;;2.15;;
23696;SDS011;48864;50.820;4.400;2022-09-09T12:34:16;6.43;;;2.30;;
23696;SDS011;48864;50.820;4.400;2022-09-09T12:36:42;4.32;;;1.75;;
23696;SDS011;48864;50.820;4.400;2022-09-09T12:39:19;5.30;;;1.80;;
23696;SDS011;48864;50.820;4.400;2022-09-09T12:41:55;7.95;;;1.92;;
23696;SDS011;48864;50.820;4.400;2022-09-09T12:44:22;4.90;;;1.88;;
23696;SDS011;48864;50.820;4.400;2022-09-09T12:46:49;4.18;;;1.80;;
23696;SDS011;48864;50.820;4.400;2022-09-09T12:49:34;7.47;;;2.10;;
23696;SDS011;48864;50.820;4.400;2022-09-09T12:55:03;6.20;;;2.05;;
23696;SDS011;48864;50.820;4.400;2022-09-09T12:57:37;3.58;;;1.80;;
23696;SDS011;48864;50.820;4.400;2022-09-09T13:02:46;5.32;;;1.90;;
23696;SDS011;48864;50.820;4.400;2022-09-09T13:05:18;9.82;;;1.90;;
23696;SDS011;48864;50.820;4.400;2022-09-09T13:07:49;5.07;;;2.00;;
23696;SDS011;48864;50.820;4.400;2022-09-09T13:10:20;6.13;;;2.05;;
23696;SDS011;48864;50.820;4.400;2022-09-09T13:12:49;4.43;;;1.67;;
23696;SDS011;48864;50.820;4.400;2022-09-09T13:15:24;4.72;;;1.65;;
23696;SDS011;48864;50.820;4.400;2022-09-09T13:17:54;4.82;;;1.98;;
23696;SDS011;48864;50.820;4.400;2022-09-09T13:20:22;6.00;;;2.05;;
23696;SDS011;48864;50.820;4.400;2022-09-09T13:22:49;6.32;;;1.80;;
23696;SDS011;48864;50.820;4.400;2022-09-09T13:25:27;7.95;;;1.80;;
23696;SDS011;48864;50.820;4.400;2022-09-09T13:27:58;6.50;;;1.60;;
23696;SDS011;48864;50.820;4.400;2022-09-09T13:35:49;3.75;;;1.75;;
23696;SDS011;48864;50.820;4.400;2022-09-09T13:38:18;4.00;;;1.80;;
23696;SDS011;48864;50.820;4.400;2022-09-09T13:40:54;4.03;;;1.92;;
23696;SDS011;48864;50.820;4.400;2022-09-09T13:43:27;4.80;;;1.70;;
23696;SDS011;48864;50.820;4.400;2022-09-09T13:45:58;8.52;;;1.80;;
23696;SDS011;48864;50.820;4.400;2022-09-09T13:48:28;4.20;;;1.60;;
23696;SDS011;48864;50.820;4.400;2022-09-09T13:51:00;4.20;;;1.48;;
23696;SDS011;48864;50.820;4.400;2022-09-09T13:53:29;5.07;;;1.35;;
23696;SDS011;48864;50.820;4.400;2022-09-09T13:55:55;3.90;;;1.48;;
23696;SDS011;48864;50.820;4.400;2022-09-09T13:58:22;4.35;;;1.50;;
23696;SDS011;48864;50.820;4.400;2022-09-09T14:00:49;3.60;;;1.88;;
23696;SDS011;48864;50.820;4.400;2022-09-09T14:03:15;5.80;;;1.77;;
23696;SDS011;48864;50.820;4.400;2022-09-09T14:05:41;4.65;;;1.70;;
23696;SDS011;48864;50.820;4.400;2022-09-09T14:08:10;3.80;;;1.70;;
23696;SDS011;48864;50.820;4.400;2022-09-09T14:10:41;6.45;;;2.03;;
23696;SDS011;48864;50.820;4.400;2022-09-09T14:13:06;4.93;;;1.92;;
23696;SDS011;48864;50.820;4.400;2022-09-09T14:18:18;6.68;;;1.70;;
23696;SDS011;48864;50.820;4.400;2022-09-09T14:20:44;4.82;;;2.13;;
23696;SDS011;48864;50.820;4.400;2022-09-09T14:23:16;3.95;;;1.90;;
23696;SDS011;48864;50.820;4.400;2022-09-09T14:25:43;3.63;;;1.60;;
23696;SDS011;48864;50.820;4.400;2022-09-09T14:28:10;2.75;;;1.70;;
23696;SDS011;48864;50.820;4.400;2022-09-09T14:30:37;2.88;;;1.55;;
23696;SDS011;48864;50.820;4.400;2022-09-09T14:33:04;5.63;;;2.10;;
23696;SDS011;48864;50.820;4.400;2022-09-09T14:35:30;6.85;;;1.67;;
23696;SDS011;48864;50.820;4.400;2022-09-09T14:38:04;3.90;;;1.77;;
23696;SDS011;48864;50.820;4.400;2022-09-09T14:40:30;5.70;;;2.10;;
23696;SDS011;48864;50.820;4.400;2022-09-09T14:42:56;3.05;;;1.77;;
23696;SDS011;48864;50.820;4.400;2022-09-09T14:45:23;4.43;;;1.80;;
23696;SDS011;48864;50.820;4.400;2022-09-09T14:47:50;5.70;;;1.75;;
23696;SDS011;48864;50.820;4.400;2022-09-09T14:50:15;4.07;;;1.70;;
23696;SDS011;48864;50.820;4.400;2022-09-09T14:55:25;2.72;;;1.52;;
23696;SDS011;48864;50.820;4.400;2022-09-09T14:57:53;6.00;;;1.80;;
23696;SDS011;48864;50.820;4.400;2022-09-09T15:00:19;3.47;;;1.70;;
23696;SDS011;48864;50.820;4.400;2022-09-09T15:02:44;7.60;;;6.97;;
23696;SDS011;48864;50.820;4.400;2022-09-09T15:05:10;9.77;;;7.50;;
23696;SDS011;48864;50.820;4.400;2022-09-09T15:07:36;8.50;;;7.25;;
23696;SDS011;48864;50.820;4.400;2022-09-09T15:10:02;7.35;;;6.70;;
23696;SDS011;48864;50.820;4.400;2022-09-09T15:12:28;7.15;;;6.47;;
23696;SDS011;48864;50.820;4.400;2022-09-09T15:14:53;7.57;;;6.72;;
23696;SDS011;48864;50.820;4.400;2022-09-09T15:17:19;7.88;;;7.10;;
23696;SDS011;48864;50.820;4.400;2022-09-09T15:19:45;7.55;;;6.93;;
23696;SDS011;48864;50.820;4.400;2022-09-09T15:22:11;10.45;;;7.55;;
23696;SDS011;48864;50.820;4.400;2022-09-09T15:24:36;8.77;;;7.28;;
23696;SDS011;48864;50.820;4.400;2022-09-09T15:27:02;11.30;;;7.60;;
23696;SDS011;48864;50.820;4.400;2022-09-09T15:29:28;9.65;;;7.15;;
23696;SDS011;48864;50.820;4.400;2022-09-09T15:31:54;8.25;;;6.88;;
23696;SDS011;48864;50.820;4.400;2022-09-09T15:34:20;7.55;;;6.63;;
23696;SDS011;48864;50.820;4.400;2022-09-09T15:36:47;7.45;;;6.65;;
23696;SDS011;48864;50.820;4.400;2022-09-09T15:39:14;8.43;;;6.90;;
23696;SDS011;48864;50.820;4.400;2022-09-09T15:41:41;6.70;;;6.20;;
23696;SDS011;48864;50.820;4.400;2022-09-09T15:44:11;8.07;;;6.82;;
23696;SDS011;48864;50.820;4.400;2022-09-09T15:46:38;8.00;;;6.25;;
23696;SDS011;48864;50.820;4.400;2022-09-09T15:49:20;6.97;;;6.35;;
23696;SDS011;48864;50.820;4.400;2022-09-09T15:51:51;8.32;;;5.90;;
23696;SDS011;48864;50.820;4.400;2022-09-09T15:54:19;6.40;;;5.90;;
23696;SDS011;48864;50.820;4.400;2022-09-09T15:56:50;6.85;;;6.30;;
23696;SDS011;48864;50.820;4.400;2022-09-09T15:59:20;8.02;;;7.30;;
23696;SDS011;48864;50.820;4.400;2022-09-09T16:01:46;7.60;;;6.13;;
23696;SDS011;48864;50.820;4.400;2022-09-09T16:04:12;7.75;;;7.05;;
23696;SDS011;48864;50.820;4.400;2022-09-09T16:06:37;8.75;;;7.93;;
23696;SDS011;48864;50.820;4.400;2022-09-09T16:09:04;8.32;;;7.55;;
23696;SDS011;48864;50.820;4.400;2022-09-09T16:11:31;8.75;;;7.35;;
23696;SDS011;48864;50.820;4.400;2022-09-09T16:14:00;7.50;;;6.80;;
23696;SDS011;48864;50.820;4.400;2022-09-09T16:16:27;8.57;;;6.90;;
23696;SDS011;48864;50.820;4.400;2022-09-09T16:18:56;7.15;;;6.50;;
23696;SDS011;48864;50.820;4.400;2022-09-09T16:21:30;8.35;;;7.10;;
23696;SDS011;48864;50.820;4.400;2022-09-09T16:23:58;7.75;;;6.95;;
23696;SDS011;48864;50.820;4.400;2022-09-09T16:26:25;6.80;;;6.15;;
23696;SDS011;48864;50.820;4.400;2022-09-09T16:28:52;8.02;;;6.47;;
23696;SDS011;48864;50.820;4.400;2022-09-09T16:31:19;7.20;;;6.50;;
23696;SDS011;48864;50.820;4.400;2022-09-09T16:33:46;7.20;;;6.60;;
23696;SDS011;48864;50.820;4.400;2022-09-09T16:36:13;7.55;;;6.40;;
23696;SDS011;48864;50.820;4.400;2022-09-09T16:38:43;6.55;;;5.80;;
23696;SDS011;48864;50.820;4.400;2022-09-09T16:41:10;6.53;;;5.88;;
23696;SDS011;48864;50.820;4.400;2022-09-09T16:43:37;6.30;;;5.88;;
23696;SDS011;48864;50.820;4.400;2022-09-09T16:46:08;6.25;;;5.70;;
23696;SDS011;48864;50.820;4.400;2022-09-09T16:48:44;5.93;;;5.40;;
23696;SDS011;48864;50.820;4.400;2022-09-09T16:51:20;7.35;;;5.60;;
23696;SDS011;48864;50.820;4.400;2022-09-09T16:53:51;6.07;;;5.22;;
23696;SDS011;48864;50.820;4.400;2022-09-09T16:56:19;5.53;;;5.13;;
23696;SDS011;48864;50.820;4.400;2022-09-09T16:59:03;6.45;;;5.70;;
23696;SDS011;48864;50.820;4.400;2022-09-09T17:01:32;4.07;;;2.10;;
23696;SDS011;48864;50.820;4.400;2022-09-09T17:04:02;3.25;;;1.80;;
23696;SDS011;48864;50.820;4.400;2022-09-09T17:06:33;4.30;;;1.90;;
23696;SDS011;48864;50.820;4.400;2022-09-09T17:09:00;3.75;;;1.70;;
23696;SDS011;48864;50.820;4.400;2022-09-09T17:11:28;3.42;;;1.77;;
23696;SDS011;48864;50.820;4.400;2022-09-09T17:13:54;4.53;;;2.10;;
23696;SDS011;48864;50.820;4.400;2022-09-09T17:16:22;3.53;;;2.05;;
23696;SDS011;48864;50.820;4.400;2022-09-09T17:18:53;6.70;;;2.22;;
23696;SDS011;48864;50.820;4.400;2022-09-09T17:21:22;2.92;;;1.80;;
23696;SDS011;48864;50.820;4.400;2022-09-09T17:23:53;7.30;;;2.10;;
23696;SDS011;48864;50.820;4.400;2022-09-09T17:26:21;4.45;;;1.75;;
23696;SDS011;48864;50.820;4.400;2022-09-09T17:28:48;7.18;;;2.00;;
23696;SDS011;48864;50.820;4.400;2022-09-09T17:31:14;6.30;;;1.73;;
23696;SDS011;48864;50.820;4.400;2022-09-09T17:33:46;4.53;;;1.90;;
23696;SDS011;48864;50.820;4.400;2022-09-09T17:36:15;5.72;;;2.10;;
23696;SDS011;48864;50.820;4.400;2022-09-09T17:38:42;8.18;;;2.35;;
23696;SDS011;48864;50.820;4.400;2022-09-09T17:41:12;24.63;;;12.07;;
23696;SDS011;48864;50.820;4.400;2022-09-09T17:43:40;5.80;;;3.13;;
23696;SDS011;48864;50.820;4.400;2022-09-09T17:46:08;6.47;;;2.45;;
23696;SDS011;48864;50.820;4.400;2022-09-09T17:48:36;6.22;;;2.10;;
23696;SDS011;48864;50.820;4.400;2022-09-09T17:51:03;7.35;;;2.03;;
23696;SDS011;48864;50.820;4.400;2022-09-09T17:56:03;6.18;;;1.73;;
23696;SDS011;48864;50.820;4.400;2022-09-09T17:58:30;8.15;;;2.03;;
23696;SDS011;48864;50.820;4.400;2022-09-09T18:01:13;7.97;;;2.38;;
23696;SDS011;48864;50.820;4.400;2022-09-09T18:03:41;7.18;;;2.30;;